sensor_id;sensor_type;location;lat;lon;timestamp;pressure;altitude;pressure_sealevel;temperature;humidity
7888;BME280;3989;48.810;9.208;2024-01-25T00:00:40;100013.00;;;10.05;100.00
7888;BME280;3989;48.810;9.208;2024-01-25T00:03:06;100007.13;;;10.01;100.00
7888;BME280;3989;48.810;9.208;2024-01-25T00:05:33;99992.69;;;9.94;100.00
7888;BME280;3989;48.810;9.208;2024-01-25T00:08:02;99944.78;;;9.75;100.00
7888;BME280;3989;48.810;9.208;2024-01-25T00:10:28;99996.44;;;10.21;100.00
7888;BME280;3989;48.810;9.208;2024-01-25T00:12:55;99929.97;;;9.90;100.00
7888;BME280;3989;48.810;9.208;2024-01-25T00:15:22;99960.66;;;10.04;100.00
7888;BME280;3989;48.810;9.208;2024-01-25T00:17:49;99970.03;;;10.18;100.00
7888;BME280;3989;48.810;9.208;2024-01-25T00:20:16;99978.06;;;10.18;100.00
7888;BME280;3989;48.810;9.208;2024-01-25T00:22:43;99983.38;;;10.18;100.00
7888;BME280;3989;48.810;9.208;2024-01-25T00:25:11;99956.53;;;10.19;100.00
7888;BME280;3989;48.810;9.208;2024-01-25T00:27:38;99981.34;;;10.29;100.00
7888;BME280;3989;48.810;9.208;2024-01-25T00:30:06;99945.50;;;10.05;100.00
7888;BME280;3989;48.810;9.208;2024-01-25T00:32:33;99974.84;;;10.14;100.00
7888;BME280;3989;48.810;9.208;2024-01-25T00:35:00;99924.81;;;9.79;100.00
7888;BME280;3989;48.810;9.208;2024-01-25T00:37:28;99898.91;;;9.72;100.00
7888;BME280;3989;48.810;9.208;2024-01-25T00:39:55;99954.75;;;10.10;100.00
7888;BME280;3989;48.810;9.208;2024-01-25T00:42:24;99959.38;;;10.18;100.00
7888;BME280;3989;48.810;9.208;2024-01-25T00:44:52;99950.38;;;10.09;100.00
7888;BME280;3989;48.810;9.208;2024-01-25T00:47:20;99914.69;;;9.83;100.00
7888;BME280;3989;48.810;9.208;2024-01-25T00:49:47;99976.03;;;10.29;100.00
7888;BME280;3989;48.810;9.208;2024-01-25T00:52:15;99987.53;;;10.30;100.00
7888;BME280;3989;48.810;9.208;2024-01-25T00:54:42;99984.69;;;10.31;100.00
7888;BME280;3989;48.810;9.208;2024-01-25T00:57:11;99995.00;;;10.26;100.00
7888;BME280;3989;48.810;9.208;2024-01-25T00:59:40;99976.03;;;10.29;100.00
7888;BME280;3989;48.810;9.208;2024-01-25T01:02:10;99965.47;;;10.28;100.00
7888;BME280;3989;48.810;9.208;2024-01-25T01:04:39;99924.59;;;10.00;100.00
7888;BME280;3989;48.810;9.208;2024-01-25T01:07:07;99979.81;;;10.27;100.00
7888;BME280;3989;48.810;9.208;2024-01-25T01:09:34;99974.50;;;10.27;100.00
7888;BME280;3989;48.810;9.208;2024-01-25T01:12:01;99985.00;;;10.28;100.00
7888;BME280;3989;48.810;9.208;2024-01-25T01:14:28;99986.81;;;10.28;100.00
7888;BME280;3989;48.810;9.208;2024-01-25T01:16:56;99962.84;;;10.18;100.00
7888;BME280;3989;48.810;9.208;2024-01-25T01:19:23;99900.13;;;9.77;100.00
7888;BME280;3989;48.810;9.208;2024-01-25T01:21:50;99945.75;;;10.11;100.00
7888;BME280;3989;48.810;9.208;2024-01-25T01:24:17;99978.78;;;10.37;100.00
7888;BME280;3989;48.810;9.208;2024-01-25T01:26:43;99938.44;;;10.13;100.00
7888;BME280;3989;48.810;9.208;2024-01-25T01:29:12;99958.63;;;10.25;100.00
7888;BME280;3989;48.810;9.208;2024-01-25T01:31:39;99973.44;;;10.37;100.00
7888;BME280;3989;48.810;9.208;2024-01-25T01:34:07;99951.50;;;10.16;100.00
7888;BME280;3989;48.810;9.208;2024-01-25T01:36:34;99964.81;;;10.26;100.00
7888;BME280;3989;48.810;9.208;2024-01-25T01:39:00;99962.25;;;10.24;100.00
7888;BME280;3989;48.810;9.208;2024-01-25T01:41:28;99955.56;;;10.20;100.00
7888;BME280;3989;48.810;9.208;2024-01-25T01:43:55;99958.03;;;10.31;100.00
7888;BME280;3989;48.810;9.208;2024-01-25T01:46:31;99967.28;;;10.37;100.00
7888;BME280;3989;48.810;9.208;2024-01-25T01:48:59;99975.72;;;10.32;100.00
7888;BME280;3989;48.810;9.208;2024-01-25T01:51:28;99968.06;;;10.20;100.00
7888;BME280;3989;48.810;9.208;2024-01-25T01:53:56;99969.16;;;10.27;100.00
7888;BME280;3989;48.810;9.208;2024-01-25T01:56:24;99949.25;;;10.12;100.00
7888;BME280;3989;48.810;9.208;2024-01-25T01:58:54;99905.00;;;9.91;100.00
7888;BME280;3989;48.810;9.208;2024-01-25T02:01:23;99921.09;;;9.99;100.00
7888;BME280;3989;48.810;9.208;2024-01-25T02:03:50;99972.66;;;10.27;100.00
7888;BME280;3989;48.810;9.208;2024-01-25T02:06:17;99968.31;;;10.26;100.00
7888;BME280;3989;48.810;9.208;2024-01-25T02:08:46;99972.19;;;10.32;100.00
7888;BME280;3989;48.810;9.208;2024-01-25T02:11:14;99966.06;;;10.22;100.00
7888;BME280;3989;48.810;9.208;2024-01-25T02:13:41;99944.75;;;10.12;100.00
7888;BME280;3989;48.810;9.208;2024-01-25T02:16:08;99950.81;;;10.14;100.00
7888;BME280;3989;48.810;9.208;2024-01-25T02:18:35;99956.66;;;10.27;100.00
7888;BME280;3989;48.810;9.208;2024-01-25T02:21:02;99937.75;;;10.11;100.00
7888;BME280;3989;48.810;9.208;2024-01-25T02:23:31;99901.22;;;9.84;100.00
7888;BME280;3989;48.810;9.208;2024-01-25T02:25:58;99939.16;;;10.06;100.00
7888;BME280;3989;48.810;9.208;2024-01-25T02:28:25;99924.25;;;9.85;100.00
7888;BME280;3989;48.810;9.208;2024-01-25T02:30:52;99950.66;;;10.06;100.00
7888;BME280;3989;48.810;9.208;2024-01-25T02:33:18;99961.34;;;10.16;100.00
7888;BME280;3989;48.810;9.208;2024-01-25T02:35:45;99942.88;;;9.95;100.00
7888;BME280;3989;48.810;9.208;2024-01-25T02:38:12;99976.22;;;10.09;100.00
7888;BME280;3989;48.810;9.208;2024-01-25T02:40:40;99941.78;;;9.88;100.00
7888;BME280;3989;48.810;9.208;2024-01-25T02:43:08;99978.22;;;9.97;100.00
7888;BME280;3989;48.810;9.208;2024-01-25T02:45:35;99974.41;;;9.99;100.00
7888;BME280;3989;48.810;9.208;2024-01-25T02:48:02;99963.09;;;9.88;100.00
7888;BME280;3989;48.810;9.208;2024-01-25T02:50:29;99974.88;;;9.95;100.00
7888;BME280;3989;48.810;9.208;2024-01-25T02:52:57;99973.63;;;9.89;100.00
7888;BME280;3989;48.810;9.208;2024-01-25T02:55:23;99966.63;;;9.88;100.00
7888;BME280;3989;48.810;9.208;2024-01-25T02:57:51;99989.47;;;9.91;100.00
7888;BME280;3989;48.810;9.208;2024-01-25T03:00:19;99960.47;;;9.78;100.00
7888;BME280;3989;48.810;9.208;2024-01-25T03:02:45;99965.66;;;9.80;100.00
7888;BME280;3989;48.810;9.208;2024-01-25T03:05:12;99940.28;;;9.66;100.00
7888;BME280;3989;48.810;9.208;2024-01-25T03:07:42;99986.25;;;9.87;100.00
7888;BME280;3989;48.810;9.208;2024-01-25T03:10:09;99945.91;;;9.63;100.00
7888;BME280;3989;48.810;9.208;2024-01-25T03:12:36;99981.63;;;9.80;100.00
7888;BME280;3989;48.810;9.208;2024-01-25T03:15:06;99969.19;;;9.71;100.00
7888;BME280;3989;48.810;9.208;2024-01-25T03:17:33;99933.19;;;9.47;100.00
7888;BME280;3989;48.810;9.208;2024-01-25T03:20:00;99989.50;;;9.81;100.00
7888;BME280;3989;48.810;9.208;2024-01-25T03:22:26;100001.03;;;9.82;100.00
7888;BME280;3989;48.810;9.208;2024-01-25T03:24:53;99892.41;;;9.28;100.00
7888;BME280;3989;48.810;9.208;2024-01-25T03:27:20;99982.09;;;9.75;100.00
7888;BME280;3989;48.810;9.208;2024-01-25T03:29:47;100002.00;;;9.81;100.00
7888;BME280;3989;48.810;9.208;2024-01-25T03:32:15;99949.88;;;9.49;100.00
7888;BME280;3989;48.810;9.208;2024-01-25T03:34:42;99977.34;;;9.60;100.00
7888;BME280;3989;48.810;9.208;2024-01-25T03:37:09;99978.06;;;9.52;100.00
7888;BME280;3989;48.810;9.208;2024-01-25T03:39:39;99981.41;;;9.54;100.00
7888;BME280;3989;48.810;9.208;2024-01-25T03:42:06;100016.78;;;9.66;100.00
7888;BME280;3989;48.810;9.208;2024-01-25T03:44:33;99932.56;;;9.17;100.00
7888;BME280;3989;48.810;9.208;2024-01-25T03:47:00;99993.78;;;9.45;100.00
7888;BME280;3989;48.810;9.208;2024-01-25T03:49:28;100015.78;;;9.57;100.00
7888;BME280;3989;48.810;9.208;2024-01-25T03:51:55;100038.22;;;9.64;100.00
7888;BME280;3989;48.810;9.208;2024-01-25T03:54:22;100008.25;;;9.43;100.00
7888;BME280;3989;48.810;9.208;2024-01-25T03:56:49;100030.41;;;9.53;100.00
7888;BME280;3989;48.810;9.208;2024-01-25T03:59:16;100030.53;;;9.52;100.00
7888;BME280;3989;48.810;9.208;2024-01-25T04:01:46;100053.94;;;9.58;100.00
7888;BME280;3989;48.810;9.208;2024-01-25T04:04:13;99993.25;;;9.23;100.00
7888;BME280;3989;48.810;9.208;2024-01-25T04:06:42;100034.31;;;9.39;100.00
7888;BME280;3989;48.810;9.208;2024-01-25T04:09:11;99963.69;;;8.97;100.00
7888;BME280;3989;48.810;9.208;2024-01-25T04:11:38;99964.38;;;8.99;100.00
7888;BME280;3989;48.810;9.208;2024-01-25T04:14:08;100048.22;;;9.53;100.00
7888;BME280;3989;48.810;9.208;2024-01-25T04:16:35;100028.56;;;9.34;100.00
7888;BME280;3989;48.810;9.208;2024-01-25T04:19:02;100047.09;;;9.45;100.00
7888;BME280;3989;48.810;9.208;2024-01-25T04:21:29;100006.00;;;9.29;100.00
7888;BME280;3989;48.810;9.208;2024-01-25T04:24:00;100022.09;;;9.27;100.00
7888;BME280;3989;48.810;9.208;2024-01-25T04:26:29;100020.28;;;9.28;100.00
7888;BME280;3989;48.810;9.208;2024-01-25T04:28:59;100047.19;;;9.54;100.00
7888;BME280;3989;48.810;9.208;2024-01-25T04:31:26;100000.56;;;9.21;100.00
7888;BME280;3989;48.810;9.208;2024-01-25T04:33:53;100029.69;;;9.32;100.00
7888;BME280;3989;48.810;9.208;2024-01-25T04:36:20;100053.25;;;9.36;100.00
7888;BME280;3989;48.810;9.208;2024-01-25T04:38:47;99966.34;;;8.87;100.00
7888;BME280;3989;48.810;9.208;2024-01-25T04:41:15;99995.47;;;8.98;100.00
7888;BME280;3989;48.810;9.208;2024-01-25T04:43:42;99992.81;;;8.98;100.00
7888;BME280;3989;48.810;9.208;2024-01-25T04:46:09;100020.44;;;9.07;100.00
7888;BME280;3989;48.810;9.208;2024-01-25T04:48:36;100054.09;;;9.37;100.00
7888;BME280;3989;48.810;9.208;2024-01-25T04:51:03;100032.50;;;9.21;100.00
7888;BME280;3989;48.810;9.208;2024-01-25T04:53:30;99989.47;;;8.96;100.00
7888;BME280;3989;48.810;9.208;2024-01-25T04:55:58;99978.53;;;8.90;100.00
7888;BME280;3989;48.810;9.208;2024-01-25T04:58:26;99998.00;;;9.00;100.00
7888;BME280;3989;48.810;9.208;2024-01-25T05:00:53;100051.97;;;9.31;100.00
7888;BME280;3989;48.810;9.208;2024-01-25T05:03:20;100046.94;;;9.28;100.00
7888;BME280;3989;48.810;9.208;2024-01-25T05:05:47;100064.88;;;9.16;100.00
7888;BME280;3989;48.810;9.208;2024-01-25T05:08:14;100030.63;;;8.83;100.00
7888;BME280;3989;48.810;9.208;2024-01-25T05:10:41;100064.84;;;8.87;100.00
7888;BME280;3989;48.810;9.208;2024-01-25T05:13:08;100065.97;;;8.85;100.00
7888;BME280;3989;48.810;9.208;2024-01-25T05:15:37;100074.06;;;8.83;100.00
7888;BME280;3989;48.810;9.208;2024-01-25T05:18:04;100076.28;;;8.69;100.00
7888;BME280;3989;48.810;9.208;2024-01-25T05:20:31;100018.03;;;8.35;100.00
7888;BME280;3989;48.810;9.208;2024-01-25T05:22:59;100070.66;;;8.62;100.00
7888;BME280;3989;48.810;9.208;2024-01-25T05:25:26;100059.72;;;8.56;100.00
7888;BME280;3989;48.810;9.208;2024-01-25T05:27:53;100091.22;;;8.60;100.00
7888;BME280;3989;48.810;9.208;2024-01-25T05:30:20;100043.16;;;8.22;100.00
7888;BME280;3989;48.810;9.208;2024-01-25T05:32:48;100099.38;;;8.38;100.00
7888;BME280;3989;48.810;9.208;2024-01-25T05:35:16;100047.09;;;7.97;100.00
7888;BME280;3989;48.810;9.208;2024-01-25T05:37:43;100059.97;;;8.02;100.00
7888;BME280;3989;48.810;9.208;2024-01-25T05:40:11;100038.78;;;7.90;100.00
7888;BME280;3989;48.810;9.208;2024-01-25T05:42:38;100107.44;;;8.27;100.00
7888;BME280;3989;48.810;9.208;2024-01-25T05:45:06;99974.75;;;7.43;100.00
7888;BME280;3989;48.810;9.208;2024-01-25T05:47:34;100068.03;;;7.90;100.00
7888;BME280;3989;48.810;9.208;2024-01-25T05:50:03;100058.41;;;7.69;100.00
7888;BME280;3989;48.810;9.208;2024-01-25T05:52:30;100009.97;;;7.45;100.00
7888;BME280;3989;48.810;9.208;2024-01-25T05:54:57;100057.81;;;7.65;100.00
7888;BME280;3989;48.810;9.208;2024-01-25T05:57:24;100027.28;;;7.39;100.00
7888;BME280;3989;48.810;9.208;2024-01-25T05:59:51;100108.94;;;7.78;100.00
7888;BME280;3989;48.810;9.208;2024-01-25T06:02:18;100101.78;;;7.58;100.00
7888;BME280;3989;48.810;9.208;2024-01-25T06:04:45;100113.47;;;7.35;100.00
7888;BME280;3989;48.810;9.208;2024-01-25T06:07:13;99831.50;;;5.50;100.00
7888;BME280;3989;48.810;9.208;2024-01-25T06:09:40;100000.66;;;6.55;100.00
7888;BME280;3989;48.810;9.208;2024-01-25T06:12:08;100141.88;;;7.23;100.00
7888;BME280;3989;48.810;9.208;2024-01-25T06:14:35;100110.63;;;7.27;100.00
7888;BME280;3989;48.810;9.208;2024-01-25T06:17:02;100118.69;;;7.25;100.00
7888;BME280;3989;48.810;9.208;2024-01-25T06:19:29;100113.91;;;7.40;100.00
7888;BME280;3989;48.810;9.208;2024-01-25T06:21:55;100120.59;;;7.34;100.00
7888;BME280;3989;48.810;9.208;2024-01-25T06:24:24;100085.69;;;7.07;100.00
7888;BME280;3989;48.810;9.208;2024-01-25T06:26:51;100051.34;;;6.95;100.00
7888;BME280;3989;48.810;9.208;2024-01-25T06:29:19;100002.56;;;6.64;100.00
7888;BME280;3989;48.810;9.208;2024-01-25T06:31:46;100121.63;;;7.11;100.00
7888;BME280;3989;48.810;9.208;2024-01-25T06:34:13;99900.97;;;5.65;100.00
7888;BME280;3989;48.810;9.208;2024-01-25T06:36:40;100101.91;;;6.71;100.00
7888;BME280;3989;48.810;9.208;2024-01-25T06:39:07;100076.97;;;6.40;100.00
7888;BME280;3989;48.810;9.208;2024-01-25T06:41:36;100101.91;;;6.60;100.00
7888;BME280;3989;48.810;9.208;2024-01-25T06:44:03;99758.91;;;4.42;100.00
7888;BME280;3989;48.810;9.208;2024-01-25T06:46:31;100075.63;;;6.01;100.00
7888;BME280;3989;48.810;9.208;2024-01-25T06:48:58;100121.69;;;6.22;100.00
7888;BME280;3989;48.810;9.208;2024-01-25T06:51:25;100061.31;;;5.58;100.00
7888;BME280;3989;48.810;9.208;2024-01-25T06:53:52;100095.50;;;5.61;100.00
7888;BME280;3989;48.810;9.208;2024-01-25T06:56:19;99985.44;;;5.00;100.00
7888;BME280;3989;48.810;9.208;2024-01-25T06:58:47;99822.09;;;4.10;100.00
7888;BME280;3989;48.810;9.208;2024-01-25T07:01:20;100020.44;;;5.03;100.00
7888;BME280;3989;48.810;9.208;2024-01-25T07:03:47;99914.50;;;4.22;100.00
7888;BME280;3989;48.810;9.208;2024-01-25T07:06:15;100128.66;;;5.43;100.00
7888;BME280;3989;48.810;9.208;2024-01-25T07:08:42;100039.75;;;4.93;100.00
7888;BME280;3989;48.810;9.208;2024-01-25T07:11:09;100095.94;;;5.20;100.00
7888;BME280;3989;48.810;9.208;2024-01-25T07:13:36;100101.00;;;5.23;100.00
7888;BME280;3989;48.810;9.208;2024-01-25T07:16:06;100038.63;;;4.84;100.00
7888;BME280;3989;48.810;9.208;2024-01-25T07:18:33;100012.16;;;4.60;100.00
7888;BME280;3989;48.810;9.208;2024-01-25T07:21:00;100104.94;;;5.17;100.00
7888;BME280;3989;48.810;9.208;2024-01-25T07:23:29;99980.28;;;4.74;100.00
7888;BME280;3989;48.810;9.208;2024-01-25T09:44:28;100049.19;;;9.32;100.00
7888;BME280;3989;48.810;9.208;2024-01-25T09:47:11;100054.34;;;9.43;100.00
7888;BME280;3989;48.810;9.208;2024-01-25T09:49:42;100182.34;;;10.20;100.00
7888;BME280;3989;48.810;9.208;2024-01-25T09:52:12;100131.94;;;9.98;100.00
7888;BME280;3989;48.810;9.208;2024-01-25T09:54:41;100140.28;;;10.41;100.00
7888;BME280;3989;48.810;9.208;2024-01-25T09:59:44;100171.50;;;11.05;100.00
7888;BME280;3989;48.810;9.208;2024-01-25T10:02:11;100215.34;;;10.85;100.00
7888;BME280;3989;48.810;9.208;2024-01-25T10:04:40;100147.13;;;10.53;100.00
7888;BME280;3989;48.810;9.208;2024-01-25T10:07:07;100231.19;;;10.96;100.00
7888;BME280;3989;48.810;9.208;2024-01-25T10:09:38;100083.69;;;9.82;100.00
7888;BME280;3989;48.810;9.208;2024-01-25T10:12:19;100149.75;;;10.17;100.00
7888;BME280;3989;48.810;9.208;2024-01-25T10:15:05;99937.03;;;8.97;100.00
7888;BME280;3989;48.810;9.208;2024-01-25T10:17:49;100082.41;;;9.57;100.00
7888;BME280;3989;48.810;9.208;2024-01-25T10:20:16;100143.00;;;9.93;100.00
7888;BME280;3989;48.810;9.208;2024-01-25T10:22:47;100036.97;;;9.49;100.00
7888;BME280;3989;48.810;9.208;2024-01-25T10:25:15;100248.94;;;10.87;100.00
7888;BME280;3989;48.810;9.208;2024-01-25T10:27:43;100219.84;;;10.84;100.00
7888;BME280;3989;48.810;9.208;2024-01-25T10:30:17;100123.09;;;10.17;100.00
7888;BME280;3989;48.810;9.208;2024-01-25T10:32:46;100124.44;;;10.40;100.00
7888;BME280;3989;48.810;9.208;2024-01-25T10:35:14;100076.88;;;10.07;100.00
7888;BME280;3989;48.810;9.208;2024-01-25T10:37:42;100196.41;;;11.05;100.00
7888;BME280;3989;48.810;9.208;2024-01-25T10:40:12;100106.16;;;10.45;100.00
7888;BME280;3989;48.810;9.208;2024-01-25T10:42:40;100117.66;;;10.45;100.00
7888;BME280;3989;48.810;9.208;2024-01-25T10:45:23;100153.84;;;10.67;100.00
7888;BME280;3989;48.810;9.208;2024-01-25T10:47:51;100013.22;;;9.84;100.00
7888;BME280;3989;48.810;9.208;2024-01-25T10:50:18;100166.47;;;10.75;100.00
7888;BME280;3989;48.810;9.208;2024-01-25T10:53:00;100101.22;;;10.50;100.00
7888;BME280;3989;48.810;9.208;2024-01-25T10:55:27;99989.25;;;9.75;100.00
7888;BME280;3989;48.810;9.208;2024-01-25T10:57:54;100056.66;;;10.23;100.00
7888;BME280;3989;48.810;9.208;2024-01-25T11:00:25;100160.44;;;10.63;100.00
7888;BME280;3989;48.810;9.208;2024-01-25T11:02:52;100187.16;;;11.00;100.00
7888;BME280;3989;48.810;9.208;2024-01-25T11:05:19;100006.31;;;9.91;100.00
7888;BME280;3989;48.810;9.208;2024-01-25T11:07:49;100079.44;;;10.18;100.00
7888;BME280;3989;48.810;9.208;2024-01-25T11:10:20;100185.44;;;10.72;100.00
7888;BME280;3989;48.810;9.208;2024-01-25T11:12:54;100079.13;;;10.11;100.00
7888;BME280;3989;48.810;9.208;2024-01-25T11:15:38;100174.91;;;10.70;100.00
7888;BME280;3989;48.810;9.208;2024-01-25T11:18:08;100180.97;;;10.72;100.00
7888;BME280;3989;48.810;9.208;2024-01-25T11:20:36;100163.88;;;10.83;100.00
7888;BME280;3989;48.810;9.208;2024-01-25T11:23:06;100121.25;;;10.64;100.00
7888;BME280;3989;48.810;9.208;2024-01-25T11:25:36;100143.28;;;10.75;100.00
7888;BME280;3989;48.810;9.208;2024-01-25T11:28:06;100105.38;;;10.62;100.00
7888;BME280;3989;48.810;9.208;2024-01-25T11:30:35;99863.56;;;9.23;100.00
7888;BME280;3989;48.810;9.208;2024-01-25T11:33:21;100133.34;;;10.95;100.00
7888;BME280;3989;48.810;9.208;2024-01-25T11:38:50;99954.06;;;9.98;100.00
7888;BME280;3989;48.810;9.208;2024-01-25T11:41:17;99994.56;;;10.21;100.00
7888;BME280;3989;48.810;9.208;2024-01-25T11:43:44;100134.16;;;11.23;100.00
7888;BME280;3989;48.810;9.208;2024-01-25T11:46:11;99935.91;;;10.12;98.51
7888;BME280;3989;48.810;9.208;2024-01-25T11:55:10;99837.19;;;10.12;94.33
7888;BME280;3989;48.810;9.208;2024-01-25T11:57:39;100067.16;;;11.34;92.74
7888;BME280;3989;48.810;9.208;2024-01-25T12:00:14;100022.38;;;11.18;93.31
7888;BME280;3989;48.810;9.208;2024-01-25T12:02:45;100119.78;;;11.86;94.27
7888;BME280;3989;48.810;9.208;2024-01-25T12:05:14;100062.53;;;11.44;97.43
7888;BME280;3989;48.810;9.208;2024-01-25T12:07:41;100105.38;;;11.79;99.40
7888;BME280;3989;48.810;9.208;2024-01-25T12:10:30;100136.81;;;12.29;95.20
7888;BME280;3989;48.810;9.208;2024-01-25T12:12:58;99936.50;;;11.13;96.17
7888;BME280;3989;48.810;9.208;2024-01-25T12:15:26;100122.44;;;12.04;97.46
7888;BME280;3989;48.810;9.208;2024-01-25T12:17:54;100117.28;;;11.85;99.67
7888;BME280;3989;48.810;9.208;2024-01-25T12:20:21;100136.63;;;11.79;99.75
7888;BME280;3989;48.810;9.208;2024-01-25T12:22:50;99943.38;;;10.63;100.00
7888;BME280;3989;48.810;9.208;2024-01-25T12:25:19;99983.91;;;10.76;100.00
7888;BME280;3989;48.810;9.208;2024-01-25T12:27:48;100122.88;;;11.99;97.25
7888;BME280;3989;48.810;9.208;2024-01-25T12:30:16;100087.75;;;11.94;91.29
7888;BME280;3989;48.810;9.208;2024-01-25T12:32:48;99868.47;;;10.64;92.53
7888;BME280;3989;48.810;9.208;2024-01-25T12:35:15;99983.97;;;11.37;90.15
7888;BME280;3989;48.810;9.208;2024-01-25T12:38:02;99920.19;;;10.98;93.86
7888;BME280;3989;48.810;9.208;2024-01-25T12:40:33;100091.50;;;12.01;100.00
7888;BME280;3989;48.810;9.208;2024-01-25T12:43:02;99907.06;;;10.87;100.00
7888;BME280;3989;48.810;9.208;2024-01-25T12:45:29;99919.88;;;10.84;100.00
7888;BME280;3989;48.810;9.208;2024-01-25T12:47:57;99985.44;;;11.14;100.00
7888;BME280;3989;48.810;9.208;2024-01-25T12:50:25;99940.16;;;10.77;100.00
7888;BME280;3989;48.810;9.208;2024-01-25T12:52:52;99984.59;;;10.95;100.00
7888;BME280;3989;48.810;9.208;2024-01-25T12:55:20;99812.22;;;9.95;100.00
7888;BME280;3989;48.810;9.208;2024-01-25T12:57:51;99956.34;;;10.75;100.00
7888;BME280;3989;48.810;9.208;2024-01-25T13:00:17;99950.38;;;10.64;100.00
7888;BME280;3989;48.810;9.208;2024-01-25T13:02:45;100050.56;;;11.30;100.00
7888;BME280;3989;48.810;9.208;2024-01-25T13:05:13;99964.50;;;10.56;100.00
7888;BME280;3989;48.810;9.208;2024-01-25T13:07:40;99707.38;;;8.95;100.00
7888;BME280;3989;48.810;9.208;2024-01-25T13:10:09;99874.78;;;10.00;100.00
7888;BME280;3989;48.810;9.208;2024-01-25T13:12:52;99824.56;;;9.69;100.00
7888;BME280;3989;48.810;9.208;2024-01-25T13:15:20;99756.09;;;9.42;100.00
7888;BME280;3989;48.810;9.208;2024-01-25T13:17:47;99941.81;;;10.60;100.00
7888;BME280;3989;48.810;9.208;2024-01-25T13:20:14;99901.06;;;10.40;100.00
7888;BME280;3989;48.810;9.208;2024-01-25T13:22:41;99757.44;;;9.56;100.00
7888;BME280;3989;48.810;9.208;2024-01-25T13:25:09;100032.94;;;11.20;100.00
7888;BME280;3989;48.810;9.208;2024-01-25T13:27:38;100030.94;;;11.22;100.00
7888;BME280;3989;48.810;9.208;2024-01-25T13:30:09;100028.56;;;11.19;100.00
7888;BME280;3989;48.810;9.208;2024-01-25T13:32:39;99732.53;;;9.37;100.00
7888;BME280;3989;48.810;9.208;2024-01-25T13:35:06;100045.44;;;11.19;100.00
7888;BME280;3989;48.810;9.208;2024-01-25T13:37:34;100016.53;;;11.15;100.00
7888;BME280;3989;48.810;9.208;2024-01-25T13:40:01;99908.03;;;10.51;100.00
7888;BME280;3989;48.810;9.208;2024-01-25T13:42:30;100021.16;;;11.13;100.00
7888;BME280;3989;48.810;9.208;2024-01-25T13:44:59;100014.66;;;11.15;100.00
7888;BME280;3989;48.810;9.208;2024-01-25T13:47:29;99879.06;;;10.38;100.00
7888;BME280;3989;48.810;9.208;2024-01-25T13:49:56;99720.31;;;9.44;100.00
7888;BME280;3989;48.810;9.208;2024-01-25T13:52:23;99840.44;;;10.15;100.00
7888;BME280;3989;48.810;9.208;2024-01-25T13:54:52;100008.50;;;11.15;100.00
7888;BME280;3989;48.810;9.208;2024-01-25T13:57:20;100007.56;;;11.06;100.00
7888;BME280;3989;48.810;9.208;2024-01-25T13:59:50;99841.78;;;10.01;100.00
7888;BME280;3989;48.810;9.208;2024-01-25T14:02:17;100036.88;;;10.98;100.00
7888;BME280;3989;48.810;9.208;2024-01-25T14:04:46;99900.16;;;10.32;100.00
7888;BME280;3989;48.810;9.208;2024-01-25T14:07:14;99995.56;;;10.92;100.00
7888;BME280;3989;48.810;9.208;2024-01-25T14:09:43;99969.72;;;10.75;100.00
7888;BME280;3989;48.810;9.208;2024-01-25T14:12:10;99798.47;;;9.90;100.00
7888;BME280;3989;48.810;9.208;2024-01-25T14:14:37;99909.78;;;10.60;100.00
7888;BME280;3989;48.810;9.208;2024-01-25T14:17:04;100014.91;;;11.22;100.00
7888;BME280;3989;48.810;9.208;2024-01-25T14:19:35;99973.81;;;11.05;100.00
7888;BME280;3989;48.810;9.208;2024-01-25T14:22:06;99867.94;;;10.43;100.00
7888;BME280;3989;48.810;9.208;2024-01-25T14:24:33;99830.00;;;10.22;100.00
7888;BME280;3989;48.810;9.208;2024-01-25T14:27:01;99808.47;;;10.06;100.00
7888;BME280;3989;48.810;9.208;2024-01-25T14:29:30;99857.03;;;10.36;100.00
7888;BME280;3989;48.810;9.208;2024-01-25T14:31:59;99796.81;;;10.07;100.00
7888;BME280;3989;48.810;9.208;2024-01-25T14:34:29;99789.31;;;9.92;100.00
7888;BME280;3989;48.810;9.208;2024-01-25T14:36:58;100014.91;;;11.04;100.00
7888;BME280;3989;48.810;9.208;2024-01-25T14:39:27;99980.78;;;10.98;100.00
7888;BME280;3989;48.810;9.208;2024-01-25T14:41:55;99798.94;;;9.85;100.00
7888;BME280;3989;48.810;9.208;2024-01-25T14:44:22;99959.41;;;10.80;100.00
7888;BME280;3989;48.810;9.208;2024-01-25T14:46:52;99850.97;;;10.17;100.00
7888;BME280;3989;48.810;9.208;2024-01-25T14:49:20;99982.53;;;10.89;100.00
7888;BME280;3989;48.810;9.208;2024-01-25T14:51:49;99924.00;;;10.61;100.00
7888;BME280;3989;48.810;9.208;2024-01-25T14:54:16;99685.25;;;9.22;100.00
7888;BME280;3989;48.810;9.208;2024-01-25T14:56:44;99971.22;;;10.95;100.00
7888;BME280;3989;48.810;9.208;2024-01-25T14:59:15;99783.69;;;9.78;100.00
7888;BME280;3989;48.810;9.208;2024-01-25T15:01:43;99986.94;;;10.81;100.00
7888;BME280;3989;48.810;9.208;2024-01-25T15:04:10;99914.09;;;10.26;100.00
7888;BME280;3989;48.810;9.208;2024-01-25T15:06:37;99805.16;;;9.49;100.00
7888;BME280;3989;48.810;9.208;2024-01-25T15:09:04;99798.19;;;9.38;100.00
7888;BME280;3989;48.810;9.208;2024-01-25T15:11:32;99698.50;;;8.67;100.00
7888;BME280;3989;48.810;9.208;2024-01-25T15:14:01;99648.00;;;8.48;100.00
7888;BME280;3989;48.810;9.208;2024-01-25T15:16:28;99885.47;;;9.91;100.00
7888;BME280;3989;48.810;9.208;2024-01-25T15:18:57;99696.66;;;8.77;100.00
7888;BME280;3989;48.810;9.208;2024-01-25T15:21:24;99923.00;;;10.17;100.00
7888;BME280;3989;48.810;9.208;2024-01-25T15:23:52;99958.44;;;10.36;100.00
7888;BME280;3989;48.810;9.208;2024-01-25T15:26:19;99827.31;;;9.49;100.00
7888;BME280;3989;48.810;9.208;2024-01-25T15:28:46;99802.81;;;9.36;100.00
7888;BME280;3989;48.810;9.208;2024-01-25T15:31:17;99836.88;;;9.42;100.00
7888;BME280;3989;48.810;9.208;2024-01-25T15:33:45;99985.25;;;10.35;100.00
7888;BME280;3989;48.810;9.208;2024-01-25T15:36:12;99960.47;;;10.15;100.00
7888;BME280;3989;48.810;9.208;2024-01-25T15:38:43;99848.75;;;9.48;100.00
7888;BME280;3989;48.810;9.208;2024-01-25T15:41:10;99888.91;;;9.74;100.00
7888;BME280;3989;48.810;9.208;2024-01-25T15:43:41;99951.34;;;10.08;100.00
7888;BME280;3989;48.810;9.208;2024-01-25T15:46:08;99729.72;;;8.75;100.00
7888;BME280;3989;48.810;9.208;2024-01-25T15:48:39;99947.25;;;9.86;100.00